メインページ
METAR-TAF:

METAR-TAF

空港 :

キング・ファハド国際空港

ダンマーム, サウジアラビア

緯度: 26-28N, 経度: 049-47E, 海抜: 22m

現時点の気象観測

当レポートは16分前の18:00(UTC)に作成
の風 7kt
気温 24°C
湿度 36%
気圧 1015 hPa
視程: 7000m
高度4000ftの雲は散在している
高度9000ftの千切れ雲あり

METAR: OEDF 171800Z 01007KT 7000 SCT040 BKN090 24/08 Q1015 NOSIG

時間: 21:16 (18:16 UTC)

予報

当レポートは3時間16分前の15:00(UTC)に作成
予報は17日の 18時(UTC)から 18日の 24時(UTC)まで有効
西/南西の風 8kt
視程: 8000m
高度4000ftの雲はほとんどない
高度10000ftの雲は散在している
確率 40% :
18日の 00時(UTC)から 18日の 12時(UTC)まで一時的に
変向風 10kt、最大20ktの突風を伴う
視程: 5000m
高度3000ftの雲はほとんどない, 積乱雲.
高度4000ftの雲は散在している
高度10000ftの千切れ雲あり
激しい雷雨, 雨
18日の 10時(UTC)から 18日の 12時(UTC)まで徐々に
の風 12kt

TAF: OEDF 171500Z 1718/1824 24008KT 8000 FEW040 SCT100 PROB40 TEMPO 1800/1812 VRB10G20KT 5000 TSRA FEW030CB SCT040 BKN100 BECMG 1810/1812 01012KT

4,000以上の空港の気象観測と天気予報(METAR報とTAF報)

利用可能な観測所は地図上に黄色い丸と赤い丸で示す。

丸の上にカーソルを重ねると観測所名を参照できる。

次にクリックすると気象観測と天気予報を参照できる。

マップの切り替え:黒色「×」印の緑ボタンをクリックして拡大、「-」印の緑ボタンをクリックして縮小、緑色の三角印をクリックして隣りの地図に切り替え


METAR-TAF: